Accueil
METAR-TAF:

METAR-TAF

Aéroports :

Lleida-Alguaire

Lleida, Espagne

latitude: 41-43-40N, longitude: 000-32-09E, altitude: 350 m

Observation

Le bulletin a été fait il y a 29 minutes, à 03:30 UTC
Vent 5 kt de sud-est
Température 19°C
Humidité 88%
Pression 1016 hPa
Visibilité 10 km ou plus
Nuages épars à une hauteur de 4700 ft

METAR: LEDA 190330Z AUTO 14005KT 9999 SCT047 19/17 Q1016

Heure: 05:59 (03:59 UTC)


TAF: absent

Observations et prévisions météorologiques de plus de 4000 aéroports (messages METAR et TAF).

Les stations disponibles sont représentées par des disques jaunes et rouges sur la carte.

Passer la souris dessus pour voir le nom de la station.

Cliquer dessus pour voir les observations et prévisions météorologiques.

Pour changer de carte: cliquez sur les boutons verts avec une croix noire pour zoomer, sur le bouton vert avec un tiret pour effectuer un zoom arrière, ou sur les flèches vertes pour les cartes adjacentes.


METAR-TAF: